Terminal Aerodrome Forecast
Issued by NWS

Home | Current Version | Previous Version | Text Only | Print | Product List | Glossary On
Versions: 1 2 3 4 5 6 7 8 9 10 11 12 13 14
000
FTUS46 KSEW 031729
TAFCLM
TAF
KCLM 031729Z 0318/0418 30008KT P6SM SCT015
     FM031900 31012G20KT P6SM SCT200
     FM040300 29015G25KT P6SM BKN015
     FM040900 29008KT P6SM OVC007
     FM041700 32006KT P6SM BKN015=

USA.gov is the U.S. government's official web portal to all federal, state and local government web resources and services.